• Join FlightAware (Why Join?)
  • Login
  • US Flag GB Flag 
18:39 EDT


 

Airport Tracker/Info


-or-


 

Live Flight TrackerFlight Track Log ✈ RPA3392 ✈ 10-May-2013 ✈ KDCA - KALB

Flight Track Log - Related Links

Times and Time Zones

All times are in EDT time to prevent confusion due to time zone crossing. See the RPA3392 flight status page for this flight to view local times or setup timezone preferences in your user account.

Time Position Orientation Groundspeed Altitude Reporting Facility
EDT Latitude Longitude Course Direction KTS MPH feet Rate Location/Type
22:28 38.8667 -77.0500 322° Northwest 156 180 1,100  Level Potomac TRACON
22:29 38.9000 -77.0833 322° Northwest 213 245 2,600 2,340 Climbing Potomac TRACON
22:30 38.9667 -77.1333 330° Northwest 300 345 5,600 3,300 Climbing Potomac TRACON
22:31 39.0167 -77.0500 52° Northeast 322 371 8,900 2,940 Climbing Potomac TRACON
22:32 39.0167 -76.9333 90° East 341 392 11,500 2,460 Climbing Potomac TRACON
22:34 39.0042 -76.7000 94° East 373 429 16,300 2,460 Climbing Washington Center
22:35 39.0322 -76.5722 74° East 361 415 18,700 2,280 Climbing Washington Center
22:36 39.0772 -76.4444 66° East 366 421 20,900 2,100 Climbing Washington Center
22:37 39.1197 -76.3111 68° East 388 447 23,000 1,020 Climbing Washington Center
22:38 39.1431 -76.1964 75° East 393 452 23,000  Level Washington Center
22:39 39.1356 -76.0331 93° East 399 459 23,000  Level Washington Center
22:40 39.1236 -75.8858 96° East 405 466 23,000  Level Washington Center
22:41 39.1092 -75.7386 97° East 405 466 23,000  Level Washington Center
22:42 39.1175 -75.5942 86° East 405 466 23,000  Level Washington Center
22:43 39.1697 -75.4631 63° Northeast 393 452 23,000  Level Washington Center
22:44 39.2214 -75.3289 64° Northeast 405 466 23,000 360 Level Washington Center
22:45 39.2731 -75.1922 64° Northeast 414 476 23,800 1,260 Climbing Washington Center
22:46 39.3394 -75.0711 55° Northeast 419 482 25,600 1,620 Climbing Washington Center
22:47 39.4328 -74.9789 37° Northeast 419 482 27,100 1,380 Climbing Washington Center
22:48 39.5322 -74.8839 36° Northeast 424 488 28,400 900 Climbing Washington Center
22:49 39.6439 -74.7697 38° Northeast 439 505 29,000 240 Climbing Washington Center
22:50 39.7619 -74.6569 36° Northeast 467 537 29,000  Level New York Center
22:51 39.8694 -74.5575 35° Northeast 473 544 29,000  Level New York Center
22:52 39.9581 -74.4592 40° Northeast 463 533 29,000  Level New York Center
22:53 40.0611 -74.3564 37° Northeast 463 533 29,000  Level New York Center
22:54 40.1622 -74.2503 39° Northeast 458 527 29,000  Level New York Center
22:55 40.2675 -74.1467 37° Northeast 458 527 29,000  Level New York Center
22:56 40.3803 -74.0678 28° Northeast 458 527 29,000  Level New York Center
22:57 40.5006 -74.0081 21° North 458 527 29,000 -840 Level New York Center
22:59 40.6922 -73.9181 20° North 446 513 26,900 -1,740 Descending Boston Center
23:00 40.7972 -73.8547 25° Northeast 422 486 24,600 -1,500 Descending Boston Center
23:01 40.8881 -73.7469 42° Northeast 413 475 24,000 -300 Descending Boston Center
23:02 40.9728 -73.6358 45° Northeast 441 507 24,000 -300 Level Boston Center
23:03 41.1028 -73.5611 23° Northeast 455 524 23,400 -540 Descending Boston Center
23:04 41.2172 -73.5714 356° North 419 482 23,000 -780 Descending Boston Center
23:05 41.3336 -73.5900 353° North 407 468 21,900 -1,500 Descending Boston Center
23:06 41.4419 -73.6031 355° North 396 456 20,100 -1,740 Descending Boston Center
23:07 41.5439 -73.6217 352° North 386 444 18,500 -1,620 Descending Boston Center
23:08 41.6458 -73.6347 355° North 373 429 16,900 -1,260 Descending Boston Center
23:09 41.7436 -73.6503 353° North 361 415 16,000 -900 Descending Boston Center
23:10 41.8478 -73.6664 353° North 361 415 15,200 -1,260 Descending Boston Center
23:11 41.9331 -73.6819 352° North 353 406 13,700 -1,980 Descending Boston Center
23:12 42.0244 -73.6950 354° North 329 379 11,600 -1,380 Descending Boston Center
23:13 42.1183 -73.7081 354° North 334 384 11,000 -480 Descending Boston Center
23:14 42.2264 -73.7214 355° North 392 451 10,700 -540 Descending Boston Center
23:15 42.3203 -73.7092 North 329 379 10,000 -1,080 Descending Boston Center
23:16 42.4017 -73.7053 North 304 350 8,700 -1,860 Descending Boston Center
23:17 42.4789 -73.6956 North 279 321 6,500 -2,040 Descending Boston Center
23:18 42.5561 -73.6886 North 279 321 4,600 -1,260 Descending Boston Center
23:19 42.6500 -73.6794 North 293 337 3,900 -780 Descending Boston Center
23:20 42.7272 -73.6781 North 274 315 3,000 -480 Descending Boston Center
23:21 42.7939 -73.6794 359° North 232 267 3,000 -60 Level Boston Center
23:22 42.8267 -73.7308 311° West 172 198 2,900 -420 Descending Boston Center
23:23 42.8217 -73.7847 263° West 118 136 2,200 -720 Descending Boston Center